Browns Valley, California
Current Conditions -  °F | °C
As of 6:15 AM on Monday 26 Jan 2015 (Local Time) from KBAB Reporting Station
Clear Clear  
Wind Chill: 35°   Ceiling: Unl
Heat Index: 39°   Visibility: 7mi
Dew Point: 39°   Wind: 6mph
Humidity: 100%   Direction: 330°NNW
Pressure: 30.06"   Gusts: NA
Location:  39.24°N, 121.41°W
Report Text: KBAB 261415Z 33005KT 7SM CLR 04/04 A3006
Loading
Personal Weather Stations






























Interactive Weather Map New forecast layout! Learn more

10-Day Weather Forecast

Advertisements
Track Severe Weather on mobile